Time;durP1;ratioP1;P1;durP2;ratioP2;P2;SDS_P1;SDS_P2;PMS_P1;PMS_P2;Temp;Humidity;BMP_temperature;BMP_pressure;BME280_temperature;BME280_humidity;BME280_pressure;Samples;Min_cycle;Max_cycle;Signal;HPM_P1;HPM_P2
2022/02/21 06:31:54;;;;;;;2.20;0.75;;;;;;;;;;5088972;22;20041;-92
2022/02/21 06:34:20;;;;;;;0.90;0.70;;;;;;;;;;5032430;28;20445;-92
2022/02/21 06:36:46;;;;;;;0.60;0.60;;;;;;;;;;5019231;28;20382;-91
2022/02/21 06:39:12;;;;;;;1.15;0.60;;;;;;;;;;5022675;28;20018;-91
2022/02/21 06:41:38;;;;;;;1.17;0.82;;;;;;;;;;5013250;28;20076;-92
2022/02/21 06:44:04;;;;;;;0.65;0.57;;;;;;;;;;5001810;28;20026;-92
2022/02/21 06:46:30;;;;;;;2.92;0.68;;;;;;;;;;5026645;28;20022;-91
2022/02/21 06:48:56;;;;;;;0.55;0.50;;;;;;;;;;5026417;28;20029;-93
2022/02/21 06:51:22;;;;;;;3.33;1.02;;;;;;;;;;5031945;28;20128;-92
2022/02/21 06:53:48;;;;;;;8.52;0.65;;;;;;;;;;5025765;28;20021;-92
2022/02/21 06:56:14;;;;;;;5.07;0.90;;;;;;;;;;5017785;28;20080;-91
2022/02/21 06:58:40;;;;;;;3.33;0.90;;;;;;;;;;5028543;28;20104;-91
2022/02/21 07:01:06;;;;;;;3.03;0.82;;;;;;;;;;5007193;28;20510;-91
2022/02/21 07:03:32;;;;;;;2.88;0.88;;;;;;;;;;5010443;28;20121;-89
2022/02/21 07:05:58;;;;;;;4.45;1.10;;;;;;;;;;5021396;28;20030;-93
2022/02/21 07:08:24;;;;;;;4.05;1.48;;;;;;;;;;5029792;28;20831;-89
2022/02/21 07:10:50;;;;;;;1.92;1.00;;;;;;;;;;5011442;28;20040;-86
2022/02/21 07:13:16;;;;;;;5.97;0.80;;;;;;;;;;5031471;28;20017;-89
2022/02/21 07:15:42;;;;;;;10.05;2.13;;;;;;;;;;5013957;28;20029;-89
2022/02/21 07:18:10;;;;;;;4.75;1.77;;;;;;;;;;5014135;28;20014;-88
2022/02/21 07:20:37;;;;;;;5.32;1.45;;;;;;;;;;5018615;28;20112;-88
2022/02/21 07:23:03;;;;;;;8.02;2.15;;;;;;;;;;5023729;28;20018;-89
2022/02/21 07:25:29;;;;;;;11.40;1.00;;;;;;;;;;5024584;28;20045;-88
2022/02/21 07:27:55;;;;;;;11.68;1.83;;;;;;;;;;5009165;28;20034;-93
2022/02/21 07:30:26;;;;;;;5.05;1.33;;;;;;;;;;5031674;28;20053;-92
2022/02/21 07:32:52;;;;;;;8.45;2.92;;;;;;;;;;5031969;28;20036;-90
2022/02/21 07:35:19;;;;;;;2.22;1.30;;;;;;;;;;5015699;28;20026;-90
2022/02/21 07:37:45;;;;;;;5.72;1.52;;;;;;;;;;5031622;28;20030;-87
2022/02/21 07:40:12;;;;;;;6.45;1.25;;;;;;;;;;5014195;28;20072;-90
2022/02/21 07:42:42;;;;;;;14.53;1.43;;;;;;;;;;5020827;28;20025;-89
2022/02/21 07:45:09;;;;;;;6.15;2.10;;;;;;;;;;5013252;28;20347;-88
2022/02/21 07:47:58;;;;;;;6.38;1.73;;;;;;;;;;5013082;28;20375;-86
2022/02/21 07:50:24;;;;;;;7.95;2.92;;;;;;;;;;5015780;28;20444;-89
2022/02/21 07:52:51;;;;;;;7.82;1.05;;;;;;;;;;5018237;28;20529;-87
2022/02/21 07:55:18;;;;;;;7.63;1.50;;;;;;;;;;5018466;28;20021;-87
2022/02/21 07:57:44;;;;;;;3.08;1.65;;;;;;;;;;5027497;28;20148;-89
2022/02/21 08:00:13;;;;;;;11.60;1.30;;;;;;;;;;5034851;28;20025;-88
2022/02/21 08:02:40;;;;;;;2.35;1.50;;;;;;;;;;5014993;28;20675;-86
2022/02/21 08:05:06;;;;;;;4.30;1.53;;;;;;;;;;5003194;28;20033;-88
2022/02/21 08:07:33;;;;;;;5.30;1.52;;;;;;;;;;5016613;28;20021;-86
2022/02/21 08:09:59;;;;;;;6.32;1.65;;;;;;;;;;5034599;28;20022;-88
2022/02/21 08:12:24;;;;;;;10.00;1.85;;;;;;;;;;5017531;28;20111;-93
2022/02/21 08:14:51;;;;;;;2.17;0.70;;;;;;;;;;5029888;28;20482;-93
2022/02/21 08:17:17;;;;;;;7.97;1.50;;;;;;;;;;5012280;28;20044;-92
2022/02/21 08:19:42;;;;;;;3.65;2.03;;;;;;;;;;5017819;28;20033;-87
2022/02/21 08:22:09;;;;;;;9.48;1.60;;;;;;;;;;5034227;28;20025;-89
2022/02/21 08:24:35;;;;;;;5.25;1.33;;;;;;;;;;5013018;28;20021;-90
2022/02/21 08:27:01;;;;;;;7.80;2.83;;;;;;;;;;5035167;28;20033;-89
2022/02/21 08:29:27;;;;;;;2.05;0.98;;;;;;;;;;5034156;28;20025;-92
2022/02/21 08:31:56;;;;;;;7.00;1.60;;;;;;;;;;5011135;28;20060;-91
2022/02/21 08:34:24;;;;;;;17.23;4.68;;;;;;;;;;5032864;28;20102;-89
2022/02/21 08:36:50;;;;;;;7.78;3.15;;;;;;;;;;5016778;28;20321;-91
2022/02/21 08:39:16;;;;;;;6.70;1.30;;;;;;;;;;5028168;28;20017;-89
2022/02/21 08:41:43;;;;;;;7.53;2.30;;;;;;;;;;5034630;28;20824;-93
2022/02/21 08:44:09;;;;;;;5.40;1.30;;;;;;;;;;5017344;28;20449;-89
2022/02/21 08:46:35;;;;;;;4.93;1.77;;;;;;;;;;5020745;28;20060;-88
2022/02/21 08:49:02;;;;;;;4.28;1.30;;;;;;;;;;5014076;28;20034;-88
2022/02/21 08:51:28;;;;;;;8.98;1.98;;;;;;;;;;5032959;28;20041;-89
2022/02/21 08:53:54;;;;;;;7.43;2.17;;;;;;;;;;5032684;28;20026;-87
2022/02/21 08:56:20;;;;;;;9.55;3.08;;;;;;;;;;5014585;28;20026;-88
2022/02/21 08:58:46;;;;;;;8.07;2.13;;;;;;;;;;5033953;28;20029;-92
2022/02/21 09:01:12;;;;;;;3.20;1.55;;;;;;;;;;5033543;28;20025;-91
2022/02/21 09:03:38;;;;;;;1.67;0.90;;;;;;;;;;5033470;28;20550;-88
2022/02/21 09:06:07;;;;;;;7.32;1.60;;;;;;;;;;5031824;28;20026;-89
2022/02/21 09:08:33;;;;;;;8.70;1.17;;;;;;;;;;5017222;28;20545;-88
2022/02/21 09:11:00;;;;;;;12.65;2.53;;;;;;;;;;5033891;28;20026;-89
2022/02/21 09:13:26;;;;;;;3.28;1.10;;;;;;;;;;5034442;28;20029;-91
2022/02/21 09:15:52;;;;;;;3.25;1.70;;;;;;;;;;5033746;28;20029;-91
2022/02/21 09:18:18;;;;;;;3.45;1.60;;;;;;;;;;5013151;28;20034;-92
2022/02/21 09:20:44;;;;;;;11.55;4.95;;;;;;;;;;5018972;28;20033;-91
2022/02/21 09:23:10;;;;;;;14.10;3.95;;;;;;;;;;5016361;28;20032;-92
2022/02/21 09:25:36;;;;;;;4.70;2.45;;;;;;;;;;5033612;28;20021;-91
2022/02/21 09:28:02;;;;;;;3.70;1.38;;;;;;;;;;5033534;28;20103;-91
2022/02/21 09:30:28;;;;;;;10.85;1.90;;;;;;;;;;5033955;28;20066;-91
2022/02/21 09:32:55;;;;;;;6.65;1.42;;;;;;;;;;5014523;28;20506;-91
2022/02/21 09:35:23;;;;;;;8.38;1.60;;;;;;;;;;5030092;28;20087;-91
2022/02/21 09:37:49;;;;;;;11.30;1.65;;;;;;;;;;5030843;28;20030;-90
2022/02/21 09:40:16;;;;;;;6.40;0.82;;;;;;;;;;5030088;28;20029;-88
2022/02/21 09:42:45;;;;;;;2.25;1.15;;;;;;;;;;5029415;28;20065;-88
2022/02/21 09:45:12;;;;;;;3.17;0.88;;;;;;;;;;5013288;28;20030;-89
2022/02/21 09:47:38;;;;;;;0.95;0.80;;;;;;;;;;5032364;28;20030;-89
2022/02/21 09:50:08;;;;;;;1.50;0.82;;;;;;;;;;5033161;28;20025;-89
2022/02/21 09:52:34;;;;;;;5.05;1.88;;;;;;;;;;5032839;28;20060;-92
2022/02/21 09:55:00;;;;;;;5.28;1.10;;;;;;;;;;5014945;28;20041;-88
2022/02/21 09:57:26;;;;;;;3.33;1.40;;;;;;;;;;5031206;28;20018;-88
2022/02/21 09:59:53;;;;;;;0.95;0.65;;;;;;;;;;5018880;28;20040;-91
2022/02/21 10:02:23;;;;;;;2.65;1.15;;;;;;;;;;5032989;28;20148;-92
2022/02/21 10:05:08;;;;;;;4.78;1.42;;;;;;;;;;5016277;28;20029;-91
2022/02/21 10:07:36;;;;;;;8.93;1.42;;;;;;;;;;5032490;28;20029;-91
2022/02/21 10:10:03;;;;;;;11.25;1.98;;;;;;;;;;5009119;28;20108;-92
2022/02/21 10:12:30;;;;;;;8.10;1.92;;;;;;;;;;5023420;28;20037;-91
2022/02/21 10:14:57;;;;;;;5.25;3.13;;;;;;;;;;5031887;28;20023;-90
2022/02/21 10:17:24;;;;;;;12.37;1.53;;;;;;;;;;5033029;28;20040;-91
2022/02/21 10:20:02;;;;;;;4.25;2.40;;;;;;;;;;5015836;28;20036;-91
2022/02/21 10:22:32;;;;;;;7.85;1.60;;;;;;;;;;5033187;28;20087;-91
2022/02/21 10:24:58;;;;;;;11.40;1.98;;;;;;;;;;5032223;28;20030;-93
2022/02/21 10:27:29;;;;;;;2.10;1.30;;;;;;;;;;5023242;28;20828;-91
2022/02/21 10:30:05;;;;;;;10.93;2.47;;;;;;;;;;5031261;28;20030;-92
2022/02/21 10:32:35;;;;;;;10.65;2.60;;;;;;;;;;5032438;28;20037;-91
2022/02/21 10:35:22;;;;;;;7.57;2.10;;;;;;;;;;5015857;28;20040;-90
2022/02/21 10:37:49;;;;;;;13.93;2.97;;;;;;;;;;5017842;28;20026;-92
2022/02/21 10:40:17;;;;;;;15.45;2.17;;;;;;;;;;5012867;28;20037;-92
2022/02/21 10:42:47;;;;;;;7.70;1.67;;;;;;;;;;5028132;28;20029;-91
2022/02/21 10:45:14;;;;;;;6.85;1.95;;;;;;;;;;5019366;28;20068;-91
2022/02/21 10:47:40;;;;;;;;;;;;;;;;;;5030058;28;20117;-91
2022/02/21 10:50:07;;;;;;;14.95;6.97;;;;;;;;;;5017330;28;19913;-91
2022/02/21 10:52:38;;;;;;;8.80;2.63;;;;;;;;;;5029617;28;20037;-91
2022/02/21 10:55:05;;;;;;;8.00;1.60;;;;;;;;;;5032197;28;20049;-91
2022/02/21 10:57:38;;;;;;;13.27;2.35;;;;;;;;;;5009347;28;20037;-92
2022/02/21 11:00:05;;;;;;;7.15;1.58;;;;;;;;;;5018908;28;20048;-92
2022/02/21 11:02:32;;;;;;;7.10;1.67;;;;;;;;;;5013890;28;20078;-89
2022/02/21 11:05:01;;;;;;;15.02;3.00;;;;;;;;;;5018681;28;20276;-91
2022/02/21 11:07:27;;;;;;;9.55;1.67;;;;;;;;;;5013972;28;20076;-91
2022/02/21 11:09:58;;;;;;;7.28;2.47;;;;;;;;;;5026090;28;20061;-92
2022/02/21 11:12:25;;;;;;;6.72;2.53;;;;;;;;;;5022743;28;20041;-92
2022/02/21 11:14:52;;;;;;;11.90;1.92;;;;;;;;;;5005778;28;20029;-93
2022/02/21 11:17:18;;;;;;;4.80;2.72;;;;;;;;;;5021201;28;20140;-92
2022/02/21 11:19:44;;;;;;;11.40;2.53;;;;;;;;;;5020625;28;20022;-91
2022/02/21 11:22:10;;;;;;;15.65;3.63;;;;;;;;;;5019505;28;20026;-92
2022/02/21 11:24:39;;;;;;;5.90;1.70;;;;;;;;;;5029446;28;20018;-91
2022/02/21 11:27:09;;;;;;;10.52;2.13;;;;;;;;;;5009801;28;20103;-91
2022/02/21 11:29:35;;;;;;;11.05;3.13;;;;;;;;;;5028446;28;20034;-91
2022/02/21 11:32:01;;;;;;;7.82;3.00;;;;;;;;;;5030273;28;20045;-92
2022/02/21 11:34:27;;;;;;;9.82;2.67;;;;;;;;;;5012434;28;20096;-91
2022/02/21 11:36:57;;;;;;;8.27;2.08;;;;;;;;;;5004503;28;20498;-92
2022/02/21 11:39:29;;;;;;;15.40;2.17;;;;;;;;;;5021019;28;20029;-92
2022/02/21 11:42:04;;;;;;;10.82;1.63;;;;;;;;;;5031373;28;20029;-91
2022/02/21 11:44:42;;;;;;;19.27;2.67;;;;;;;;;;5030611;28;20121;-91
2022/02/21 11:47:09;;;;;;;5.93;1.98;;;;;;;;;;5014658;28;20029;-89
2022/02/21 11:49:36;;;;;;;8.02;2.65;;;;;;;;;;5028702;28;20048;-89
2022/02/21 11:52:36;;;;;;;9.68;4.70;;;10.70;73.30;;;;;;5028231;28;20061;-90
2022/02/21 11:55:02;;;;;;;10.50;2.72;;;;;;;;;;4908778;29;20032;-91
2022/02/21 11:57:38;;;;;;;21.03;3.80;;;;;;;;;;4923508;29;20468;-90
2022/02/21 12:00:23;;;;;;;4.70;2.67;;;;;;;;;;4932632;29;20032;-90
2022/02/21 12:03:08;;;;;;;4.53;2.03;;;;;;;;;;4933561;29;20095;-90
2022/02/21 12:05:34;;;;;;;10.85;3.08;;;;;;;;;;4932033;29;20048;-90
2022/02/21 12:08:00;;;;;;;11.50;2.38;;;;;;;;;;4929940;29;20229;-91
2022/02/21 12:10:26;;;;;;;25.77;2.47;;;;;;;;;;4914629;29;20131;-90
2022/02/21 12:12:57;;;;;;;11.82;1.85;;;;;;;;;;4914096;29;20048;-90
2022/02/21 12:15:24;;;;;;;2.92;1.67;;;;;;;;;;4914121;29;20039;-90
2022/02/21 12:18:19;;;;;;;10.07;2.75;;;10.30;74.40;;;;;;4918495;29;20700;-90
2022/02/21 12:20:45;;;;;;;11.27;1.95;;;;;;;;;;4874984;29;20029;-90
2022/02/21 12:23:16;;;;;;;7.57;1.98;;;;;;;;;;4876055;29;20125;-89
2022/02/21 12:26:04;;;;;;;6.75;1.67;;;;;;;;;;4864957;29;20066;-89
2022/02/21 12:28:34;;;;;;;5.55;2.03;;;;;;;;;;4880476;29;20037;-91
2022/02/21 12:31:01;;;;;;;8.13;2.72;;;;;;;;;;4937801;28;20059;-92
2022/02/21 12:33:28;;;;;;;5.90;1.60;;;;;;;;;;4966873;28;20027;-91
2022/02/21 12:35:58;;;;;;;16.20;2.15;;;;;;;;;;4970813;28;20027;-89
2022/02/21 12:38:25;;;;;;;10.73;2.25;;;;;;;;;;4973058;28;20679;-90
2022/02/21 12:40:51;;;;;;;;;;;;;;;;;;4972810;28;20459;-89
2022/02/21 12:43:17;;;;;;;5.57;1.52;;;;;;;;;;4968171;28;19910;-91
2022/02/21 12:45:44;;;;;;;7.72;1.85;;;;;;;;;;4966645;28;20035;-90
2022/02/21 12:48:10;;;;;;;3.80;1.42;;;;;;;;;;4950251;29;20031;-90
2022/02/21 12:50:36;;;;;;;8.50;1.90;;;;;;;;;;4942387;28;20066;-92
2022/02/21 12:53:04;;;;;;;2.60;1.40;;;;;;;;;;4973918;28;20077;-92
2022/02/21 12:55:30;;;;;;;6.03;1.48;;;;;;;;;;4955734;28;20027;-91
2022/02/21 12:57:56;;;;;;;3.55;2.33;;;;;;;;;;5006108;28;20152;-90
2022/02/21 13:00:32;;;;;;;6.38;1.88;;;;;;;;;;5034673;28;20037;-90
2022/02/21 13:02:59;;;;;;;7.88;1.90;;;;;;;;;;5033885;28;20022;-89
2022/02/21 13:05:28;;;;;;;4.70;2.22;;;;;;;;;;5034375;28;20041;-89
2022/02/21 13:07:54;;;;;;;15.35;2.83;;;;;;;;;;5034366;28;20380;-87
2022/02/21 13:10:20;;;;;;;7.32;2.97;;;;;;;;;;5015821;28;20045;-87
2022/02/21 13:12:49;;;;;;;3.10;2.28;;;;;;;;;;5026006;28;20061;-89
2022/02/21 13:15:15;;;;;;;4.22;2.45;;;;;;;;;;5022779;28;20026;-87
2022/02/21 13:17:41;;;;;;;3.55;1.77;;;;;;;;;;5013750;28;20057;-89
2022/02/21 13:20:07;;;;;;;4.30;1.85;;;;;;;;;;5034380;28;20025;-88
2022/02/21 13:22:36;;;;;;;9.10;2.63;;;;;;;;;;5006114;28;20029;-88
2022/02/21 13:25:04;;;;;;;12.63;3.83;;;;;;;;;;5018589;28;20037;-90
2022/02/21 13:27:33;;;;;;;13.60;2.13;;;;;;;;;;5029342;28;20029;-87
2022/02/21 13:29:59;;;;;;;6.18;1.50;;;;;;;;;;5016431;28;20061;-90
2022/02/21 13:32:29;;;;;;;9.38;2.92;;;;;;;;;;5012191;28;20391;-89
2022/02/21 13:35:04;;;;;;;2.72;1.38;;;;;;;;;;5031079;28;20037;-88
2022/02/21 13:37:33;;;;;;;1.38;1.23;;;;;;;;;;5034237;28;20035;-89
2022/02/21 13:40:08;;;;;;;5.53;1.80;;;;;;;;;;5033429;28;20048;-89
2022/02/21 13:42:35;;;;;;;6.55;1.67;;;;;;;;;;5033238;28;20029;-89
2022/02/21 13:45:27;;;;;;;3.63;2.03;;;10.90;82.70;;;;;;5033008;28;20029;-89
2022/02/21 13:48:03;;;;;;;4.30;2.00;;;;;;;;;;5017894;28;20474;-89
2022/02/21 13:50:49;;;;;;;3.22;1.35;;;10.90;79.70;;;;;;5029653;28;20030;-87
2022/02/21 13:53:17;;;;;;;2.42;1.00;;;;;;;;;;4995426;28;20380;-87
2022/02/21 13:55:53;;;;;;;4.25;1.23;;;;;;;;;;5032499;28;20040;-87
2022/02/21 13:58:26;;;;;;;2.25;1.42;;;;;;;;;;5012358;28;20494;-87
2022/02/21 14:00:52;;;;;;;4.72;1.10;;;;;;;;;;5020964;28;20023;-87
2022/02/21 14:03:19;;;;;;;5.55;1.60;;;;;;;;;;5013817;28;20073;-87
2022/02/21 14:05:52;;;;;;;3.70;1.73;;;;;;;;;;5016368;28;20025;-89
2022/02/21 14:08:18;;;;;;;7.03;2.20;;;;;;;;;;5032494;28;20083;-91
2022/02/21 14:10:57;;;;;;;10.18;2.55;;;;;;;;;;5032261;28;20037;-93
2022/02/21 14:13:24;;;;;;;4.97;2.20;;;;;;;;;;5014315;28;20033;-92
2022/02/21 14:15:53;;;;;;;3.72;1.20;;;;;;;;;;5033132;28;20027;-92
2022/02/21 14:18:20;;;;;;;6.40;1.38;;;;;;;;;;5014720;28;20044;-93
2022/02/21 14:20:46;;;;;;;6.50;2.22;;;;;;;;;;5030620;28;20520;-92
2022/02/21 14:23:12;;;;;;;6.07;1.80;;;;;;;;;;5033340;28;20021;-94
2022/02/21 14:25:38;;;;;;;7.60;1.88;;;;;;;;;;5031751;28;20124;-91
2022/02/21 14:28:04;;;;;;;6.22;1.50;;;;;;;;;;5020214;28;20074;-93
2022/02/21 14:30:30;;;;;;;5.78;1.80;;;;;;;;;;5012244;28;20140;-89
2022/02/21 14:32:56;;;;;;;9.43;2.05;;;;;;;;;;5021840;28;20052;-91
2022/02/21 14:35:22;;;;;;;5.70;1.50;;;;;;;;;;5015297;28;20045;-92
2022/02/21 14:37:48;;;;;;;2.22;1.35;;;;;;;;;;5033134;28;20033;-91
2022/02/21 14:40:14;;;;;;;4.43;1.23;;;;;;;;;;5026718;28;20467;-91
2022/02/21 14:42:40;;;;;;;10.52;2.83;;;;;;;;;;5025753;28;20028;-91
2022/02/21 14:45:07;;;;;;;2.28;0.98;;;;;;;;;;5008128;28;20030;-91
2022/02/21 14:47:33;;;;;;;4.27;1.10;;;;;;;;;;5011765;28;20029;-91
2022/02/21 14:49:59;;;;;;;3.65;1.77;;;;;;;;;;5026934;28;20033;-89
2022/02/21 14:52:25;;;;;;;5.13;0.88;;;;;;;;;;5031757;28;20037;-89
2022/02/21 14:54:52;;;;;;;0.47;0.47;;;;;;;;;;5031384;28;20104;-88
2022/02/21 14:57:20;;;;;;;2.15;1.10;;;;;;;;;;5031941;28;20751;-89
2022/02/21 14:59:47;;;;;;;0.98;0.77;;;;;;;;;;5013838;28;20072;-90
2022/02/21 15:02:13;;;;;;;3.40;0.80;;;;;;;;;;5014448;28;20054;-89
2022/02/21 15:04:39;;;;;;;9.43;2.33;;;;;;;;;;5013699;28;20029;-87
2022/02/21 15:07:05;;;;;;;8.98;0.95;;;;;;;;;;5032128;28;20041;-91
2022/02/21 15:09:31;;;;;;;6.53;1.00;;;;;;;;;;5032107;28;20076;-89
2022/02/21 15:11:57;;;;;;;5.00;2.20;;;;;;;;;;5031923;28;20486;-89
2022/02/21 15:14:23;;;;;;;4.80;1.17;;;;;;;;;;5014570;28;20057;-89
2022/02/21 15:16:49;;;;;;;3.53;1.10;;;;;;;;;;5021083;28;20032;-89
2022/02/21 15:19:15;;;;;;;2.70;1.67;;;;;;;;;;5032036;28;20030;-90
2022/02/21 15:21:41;;;;;;;4.93;1.75;;;;;;;;;;5006084;28;20397;-89
2022/02/21 15:24:09;;;;;;;4.63;0.77;;;;;;;;;;5014141;28;20033;-89
2022/02/21 15:26:35;;;;;;;2.55;1.27;;;;;;;;;;5031986;28;20052;-89
2022/02/21 15:29:02;;;;;;;2.47;1.88;;;;;;;;;;5011196;28;20030;-87
2022/02/21 15:31:28;;;;;;;1.85;1.15;;;;;;;;;;5008007;28;20054;-86
2022/02/21 15:33:54;;;;;;;10.50;3.00;;;;;;;;;;5013947;28;20113;-87
2022/02/21 15:36:20;;;;;;;21.98;8.23;;;;;;;;;;5030097;28;20029;-87
2022/02/21 15:38:46;;;;;;;17.52;7.55;;;;;;;;;;5013176;28;20492;-87
2022/02/21 15:41:13;;;;;;;4.88;2.47;;;;;;;;;;5031921;28;20052;-87
2022/02/21 15:43:39;;;;;;;0.90;0.73;;;;;;;;;;5027738;28;20029;-92
2022/02/21 15:46:06;;;;;;;3.78;1.30;;;;;;;;;;5005070;28;20036;-87
2022/02/21 15:48:32;;;;;;;1.77;1.30;;;;;;;;;;5010944;28;20040;-86
2022/02/21 15:50:58;;;;;;;10.80;1.20;;;;;;;;;;5011679;28;20516;-88
2022/02/21 15:53:24;;;;;;;5.78;2.75;;;;;;;;;;5011376;28;20073;-88
2022/02/21 15:55:50;;;;;;;5.40;1.90;;;;;;;;;;5031677;28;20029;-91
2022/02/21 15:58:17;;;;;;;2.85;1.50;;;;;;;;;;5029813;28;20022;-93
2022/02/21 16:00:43;;;;;;;8.32;2.97;;;;;;;;;;5027044;28;20025;-89
2022/02/21 16:03:09;;;;;;;3.17;1.27;;;;;;;;;;5023858;28;20029;-89
2022/02/21 16:05:35;;;;;;;5.28;0.93;;;;;;;;;;5014421;28;20053;-88
2022/02/21 16:08:02;;;;;;;2.08;0.77;;;;;;;;;;5031147;28;20064;-89
2022/02/21 16:10:28;;;;;;;1.73;1.38;;;;;;;;;;5014764;28;20116;-88
2022/02/21 16:12:54;;;;;;;7.28;1.98;;;;;;;;;;5034663;28;20034;-88
2022/02/21 16:15:20;;;;;;;5.07;1.70;;;;;;;;;;5034024;28;20044;-88
2022/02/21 16:17:46;;;;;;;3.42;1.38;;;;;;;;;;5034782;28;20029;-87
2022/02/21 16:20:12;;;;;;;22.67;5.93;;;;;;;;;;5036186;28;20034;-90
2022/02/21 16:22:38;;;;;;;15.73;5.68;;;;;;;;;;5034899;28;20022;-89
2022/02/21 16:25:05;;;;;;;3.88;0.93;;;;;;;;;;5035638;28;20034;-90
2022/02/21 16:27:31;;;;;;;7.67;1.63;;;;;;;;;;5034688;28;20037;-90
2022/02/21 16:30:00;;;;;;;1.67;0.85;;;;;;;;;;5034353;28;20029;-93
2022/02/21 16:32:26;;;;;;;2.08;0.68;;;;;;;;;;5033312;28;20391;-89
2022/02/21 16:34:52;;;;;;;3.83;1.08;;;;;;;;;;5011579;28;20021;-92
2022/02/21 16:37:18;;;;;;;4.85;1.48;;;;;;;;;;5010333;28;20029;-89
2022/02/21 16:39:44;;;;;;;7.40;2.63;;;;;;;;;;5033085;28;20044;-88
2022/02/21 16:42:11;;;;;;;5.97;1.00;;;;;;;;;;5037096;28;20112;-92
2022/02/21 16:44:37;;;;;;;9.95;1.65;;;;;;;;;;5008666;28;20745;-91
2022/02/21 16:47:05;;;;;;;2.65;1.02;;;;;;;;;;5010410;28;20033;-94
2022/02/21 16:49:31;;;;;;;3.10;1.10;;;;;;;;;;5026587;28;20030;-94
2022/02/21 16:51:57;;;;;;;4.00;1.02;;;;;;;;;;5035796;28;20060;-95
2022/02/21 16:54:24;;;;;;;12.20;2.15;;;;;;;;;;5021310;28;20093;-95
2022/02/21 16:56:50;;;;;;;3.05;1.45;;;;;;;;;;5043514;28;20061;-95
2022/02/21 16:59:16;;;;;;;1.02;0.80;;;;;;;;;;5041411;28;20021;-92
2022/02/21 17:01:42;;;;;;;1.98;0.88;;;;;;;;;;5035537;28;20037;-89
2022/02/21 17:04:08;;;;;;;6.13;1.58;;;;;;;;;;5028865;28;20070;-91
2022/02/21 17:06:34;;;;;;;6.55;1.45;;;;;;;;;;5033707;28;20112;-90
2022/02/21 17:09:00;;;;;;;6.43;1.98;;;;;;;;;;5012998;28;20041;-90
2022/02/21 17:11:26;;;;;;;7.97;1.50;;;;;;;;;;5031575;28;20133;-95
2022/02/21 17:13:52;;;;;;;2.33;0.93;;;;;;;;;;5024065;28;20394;-91
2022/02/21 17:16:18;;;;;;;1.38;1.27;;;;;;;;;;5029988;28;20037;-91
2022/02/21 17:18:44;;;;;;;2.25;1.80;;;;;;;;;;5034920;28;20049;-91
2022/02/21 17:21:11;;;;;;;7.40;1.50;;;;;;;;;;5034330;28;20021;-91
2022/02/21 17:23:37;;;;;;;7.95;1.67;;;;;;;;;;5034631;28;20025;-90
2022/02/21 17:26:03;;;;;;;10.13;2.08;;;;;;;;;;5008379;28;20429;-92
2022/02/21 17:28:30;;;;;;;2.83;1.17;;;;;;;;;;5028915;28;20034;-93
2022/02/21 17:30:56;;;;;;;12.57;1.33;;;;;;;;;;5030046;28;20038;-94
2022/02/21 17:33:23;;;;;;;12.85;2.25;;;;;;;;;;5034567;28;20635;-94
2022/02/21 17:35:49;;;;;;;11.30;2.50;;;;;;;;;;5037093;28;20083;-94
2022/02/21 17:38:15;;;;;;;3.88;1.40;;;;;;;;;;5038705;28;20280;-95
2022/02/21 17:40:41;;;;;;;14.93;2.70;;;;;;;;;;5039570;28;20048;-94
2022/02/21 17:43:08;;;;;;;12.52;2.22;;;;;;;;;;5039161;28;20025;-90
2022/02/21 17:45:34;;;;;;;7.53;4.20;;;;;;;;;;5029037;28;20029;-92
2022/02/21 17:48:01;;;;;;;15.00;2.87;;;;;;;;;;5030964;28;20025;-91
2022/02/21 17:50:27;;;;;;;7.32;2.50;;;;;;;;;;5016906;28;20018;-92
2022/02/21 17:52:53;;;;;;;9.05;1.92;;;;;;;;;;5034623;28;20072;-93
2022/02/21 17:55:20;;;;;;;6.43;1.00;;;;;;;;;;5038745;28;20391;-92
2022/02/21 17:57:46;;;;;;;6.32;1.98;;;;;;;;;;5016613;28;20038;-94
2022/02/21 18:00:12;;;;;;;13.02;1.60;;;;;;;;;;5015353;28;20544;-92
2022/02/21 18:02:38;;;;;;;12.48;1.73;;;;;;;;;;5032180;28;20106;-94
2022/02/21 18:05:06;;;;;;;7.60;2.88;;;;;;;;;;5034149;28;20018;-94
2022/02/21 18:07:32;;;;;;;11.80;3.45;;;;;;;;;;5016100;28;20107;-92
2022/02/21 18:09:58;;;;;;;11.93;3.20;;;;;;;;;;5035157;28;20025;-93
2022/02/21 18:12:24;;;;;;;8.43;2.10;;;;;;;;;;5025285;28;20052;-92
2022/02/21 18:14:50;;;;;;;9.35;2.72;;;;;;;;;;5018985;28;20811;-92
2022/02/21 18:17:17;;;;;;;2.72;1.90;;;;;;;;;;5021785;28;20030;-93
2022/02/21 18:19:43;;;;;;;6.80;1.88;;;;;;;;;;5026352;28;20569;-92
2022/02/21 18:22:10;;;;;;;3.05;1.80;;;;;;;;;;5033274;28;20116;-92
2022/02/21 18:24:36;;;;;;;9.05;2.90;;;;;;;;;;5015616;28;20109;-93
2022/02/21 18:27:08;;;;;;;7.55;2.33;;;;;;;;;;5010048;28;20120;-93
2022/02/21 18:29:35;;;;;;;5.63;1.85;;;;;;;;;;5028810;28;20029;-93
2022/02/21 18:32:01;;;;;;;8.13;1.83;;;;;;;;;;5012656;28;20045;-94
2022/02/21 18:34:27;;;;;;;8.00;2.97;;;;;;;;;;5013224;28;20026;-92
2022/02/21 18:36:53;;;;;;;2.45;1.55;;;;;;;;;;5027254;28;20555;-94
2022/02/21 18:39:19;;;;;;;10.95;2.60;;;;;;;;;;5011852;28;20082;-94
2022/02/21 18:41:45;;;;;;;4.13;1.27;;;;;;;;;;5024287;28;20049;-92
2022/02/21 18:44:11;;;;;;;3.90;2.20;;;;;;;;;;5006004;28;20282;-92
2022/02/21 18:46:37;;;;;;;5.47;2.03;;;;;;;;;;5026587;28;20029;-94
2022/02/21 18:49:03;;;;;;;7.00;1.95;;;;;;;;;;5026013;28;20400;-93
2022/02/21 18:51:29;;;;;;;4.20;1.25;;;;;;;;;;5008822;28;20029;-92
2022/02/21 18:53:56;;;;;;;6.32;1.85;;;;;;;;;;5029298;28;20032;-94
2022/02/21 18:56:22;;;;;;;4.63;0.98;;;;;;;;;;5022044;28;20023;-90
2022/02/21 18:58:48;;;;;;;7.60;2.47;;;;;;;;;;5027080;28;20052;-93
2022/02/21 19:01:14;;;;;;;3.43;1.57;;;;;;;;;;5025596;28;20051;-92
2022/02/21 19:03:44;;;;;;;1.38;1.13;;;;;;;;;;5032549;28;20261;-91
2022/02/21 19:06:13;;;;;;;20.55;1.98;;;;;;;;;;5014086;28;20042;-93
2022/02/21 19:08:39;;;;;;;5.63;1.52;;;;;;;;;;5017280;28;20497;-92
2022/02/21 19:11:05;;;;;;;1.13;0.90;;;;;;;;;;5028733;28;20030;-93
2022/02/21 19:13:31;;;;;;;6.32;1.40;;;;;;;;;;5013992;28;20083;-83
2022/02/21 19:15:58;;;;;;;2.65;1.45;;;;;;;;;;5014271;28;20030;-91
2022/02/21 19:18:25;;;;;;;10.95;1.95;;;;;;;;;;5032068;28;20048;-89
2022/02/21 19:20:51;;;;;;;4.18;2.30;;;;;;;;;;5015399;28;20401;-84
2022/02/21 19:23:17;;;;;;;6.35;3.00;;;;;;;;;;5012603;28;20037;-90
2022/02/21 19:25:47;;;;;;;6.75;1.40;;;;;;;;;;5030974;28;20021;-92
2022/02/21 19:28:15;;;;;;;13.10;3.03;;;;;;;;;;5031734;28;20036;-92
2022/02/21 19:30:42;;;;;;;5.13;1.65;;;;;;;;;;5007323;28;20061;-91
2022/02/21 19:33:08;;;;;;;5.38;1.92;;;;;;;;;;5012927;28;20046;-93
2022/02/21 19:35:34;;;;;;;9.25;3.13;;;;;;;;;;5014151;28;20022;-96
2022/02/21 19:38:00;;;;;;;13.88;3.40;;;;;;;;;;5012848;28;20034;-96
2022/02/21 19:40:26;;;;;;;6.13;3.38;;;;;;;;;;5020144;28;20033;-96
2022/02/21 19:42:53;;;;;;;11.90;3.60;;;;;;;;;;5025666;28;20109;-95
2022/02/21 19:45:21;;;;;;;3.22;1.67;;;;;;;;;;5009261;28;20087;-94
2022/02/21 19:47:48;;;;;;;7.68;2.40;;;;;;;;;;5000137;28;20026;-96
2022/02/21 19:50:14;;;;;;;14.23;2.20;;;;;;;;;;5009326;28;20056;-94
2022/02/21 19:52:41;;;;;;;6.55;2.30;;;;;;;;;;5010769;28;20042;-94
2022/02/21 19:55:07;;;;;;;;;;;;;;;;;;5008734;28;20391;-94
2022/02/21 19:57:34;;;;;;;5.72;1.65;;;;;;;;;;5014508;28;19906;-92
2022/02/21 20:00:01;;;;;;;7.80;2.03;;;;;;;;;;5012149;28;20033;-94
2022/02/21 20:02:29;;;;;;;6.63;2.30;;;;;;;;;;5015873;28;20018;-93
2022/02/21 20:04:55;;;;;;;2.38;1.60;;;;;;;;;;5016533;28;20038;-93
2022/02/21 20:07:21;;;;;;;8.25;1.35;;;;;;;;;;5015396;28;20026;-96
2022/02/21 20:09:47;;;;;;;11.50;5.30;;;;;;;;;;5015421;28;20025;-93
2022/02/21 20:12:16;;;;;;;4.43;2.00;;;;;;;;;;5010183;28;20038;-92
2022/02/21 20:14:43;;;;;;;10.23;2.92;;;;;;;;;;5016352;28;20026;-93
2022/02/21 20:17:09;;;;;;;4.35;2.78;;;;;;;;;;5016291;28;20030;-92
2022/02/21 20:19:35;;;;;;;5.57;2.03;;;;;;;;;;5014792;28;20153;-93
2022/02/21 20:22:01;;;;;;;10.82;2.92;;;;;;;;;;5008896;28;20511;-92
2022/02/21 20:24:27;;;;;;;3.50;1.00;;;;;;;;;;5012925;28;20112;-91
2022/02/21 20:26:53;;;;;;;4.70;1.30;;;;;;;;;;5012864;28;20026;-94
2022/02/21 20:29:20;;;;;;;8.35;1.63;;;;;;;;;;5016228;28;20036;-93
2022/02/21 20:31:46;;;;;;;3.60;1.57;;;;;;;;;;5014373;28;20057;-92
2022/02/21 20:34:12;;;;;;;8.50;1.85;;;;;;;;;;5014096;28;20049;-92
2022/02/21 20:36:39;;;;;;;15.48;1.77;;;;;;;;;;5013349;28;20040;-92
2022/02/21 20:39:06;;;;;;;3.20;1.80;;;;;;;;;;5002470;28;20030;-91
2022/02/21 20:41:32;;;;;;;5.00;4.07;;;;;;;;;;5014849;28;20080;-92
2022/02/21 20:43:58;;;;;;;9.75;4.15;;;;;;;;;;5010669;28;20029;-91
2022/02/21 20:46:24;;;;;;;7.03;1.55;;;;;;;;;;5014734;28;20034;-92
2022/02/21 20:48:50;;;;;;;4.85;2.25;;;;;;;;;;5030992;28;20061;-93
2022/02/21 20:51:16;;;;;;;2.30;2.20;;;;;;;;;;5007852;28;20030;-93
2022/02/21 20:53:42;;;;;;;2.42;1.52;;;;;;;;;;4999618;28;20026;-92
2022/02/21 20:56:09;;;;;;;3.88;1.60;;;;;;;;;;5030827;28;20026;-94
2022/02/21 20:58:36;;;;;;;10.93;3.33;;;;;;;;;;5013085;28;20065;-93
2022/02/21 21:01:02;;;;;;;16.13;4.90;;;;;;;;;;5009260;28;20061;-94
2022/02/21 21:03:28;;;;;;;6.38;2.13;;;;;;;;;;5013950;28;20037;-95
2022/02/21 21:05:54;;;;;;;2.40;1.23;;;;;;;;;;5026727;28;20048;-95
2022/02/21 21:08:20;;;;;;;15.02;4.30;;;;;;;;;;5010925;28;20033;-93
2022/02/21 21:10:48;;;;;;;3.53;2.35;;;;;;;;;;5014410;28;20026;-93
2022/02/21 21:13:14;;;;;;;4.32;1.67;;;;;;;;;;5015047;28;20052;-92